Tracy, Missouri
Current Conditions -  °F | °C
As of 11:53 PM on Sunday 25 Jan 2015 (Local Time) from KMCI Reporting Station
Clear Clear  
Wind Chill: 30°   Ceiling: Unl
Heat Index: 30°   Visibility: 10mi
Dew Point: 27°   Wind: 0mph
Humidity: 88%   Direction: NA
Pressure: 30.1"   Gusts: NA
Location:  39.3588°N, 94.8136°W
Report Text: KMCI 260553Z 00000KT 10SM CLR M01/M03 A3010 RMK AO2 SLP200 T10111028 10028 21033 400721033 50005
Loading
Personal Weather Stations






























Interactive Weather Map New forecast layout! Learn more

10-Day Weather Forecast

Advertisements
Track Severe Weather on mobile